createdAt,value
2022-12-11T00:00:15.599Z,-0.50
2022-12-11T00:02:43.473Z,-0.50
2022-12-11T00:05:11.475Z,-0.40
2022-12-11T00:07:39.535Z,-0.30
2022-12-11T00:10:09.389Z,-0.30
2022-12-11T00:12:38.658Z,-0.30
2022-12-11T00:15:07.710Z,-0.10
2022-12-11T00:17:35.930Z,-0.20
2022-12-11T00:20:05.015Z,-0.10
2022-12-11T00:22:32.885Z,-0.10
2022-12-11T00:25:00.809Z,-0.10
2022-12-11T00:27:28.829Z,0.00
2022-12-11T00:29:58.104Z,0.00
2022-12-11T00:32:28.317Z,0.10
2022-12-11T00:34:56.450Z,0.10
2022-12-11T00:37:24.337Z,0.10
2022-12-11T00:39:52.240Z,0.20
2022-12-11T00:42:20.093Z,0.20
2022-12-11T00:44:47.984Z,0.20
2022-12-11T00:47:17.192Z,0.20
2022-12-11T00:49:49.583Z,0.20
2022-12-11T00:52:18.363Z,0.20
2022-12-11T00:54:46.281Z,0.20
2022-12-11T00:57:14.163Z,0.30
2022-12-11T00:59:42.033Z,0.30
2022-12-11T01:02:09.916Z,0.30
2022-12-11T01:04:39.139Z,0.20
2022-12-11T01:07:07.016Z,0.20
2022-12-11T01:09:57.721Z,0.20
2022-12-11T01:12:26.671Z,0.20
2022-12-11T01:14:54.555Z,0.10
2022-12-11T01:17:22.405Z,0.10
2022-12-11T01:19:51.655Z,0.20
2022-12-11T01:22:19.543Z,0.20
2022-12-11T01:24:47.457Z,0.20
2022-12-11T01:27:15.407Z,0.30
2022-12-11T01:29:43.346Z,0.20
2022-12-11T01:32:11.244Z,0.20
2022-12-11T01:34:39.272Z,0.10
2022-12-11T01:37:08.498Z,0.00
2022-12-11T01:39:38.371Z,0.00
2022-12-11T01:42:19.939Z,0.00
2022-12-11T01:45:26.732Z,-0.10
2022-12-11T01:48:00.584Z,-0.10
2022-12-11T01:50:29.647Z,0.00
2022-12-11T01:52:59.408Z,-0.10
2022-12-11T01:55:27.442Z,-0.10
2022-12-11T01:57:55.656Z,-0.10
2022-12-11T02:00:23.738Z,0.00
2022-12-11T02:02:51.692Z,-0.10
2022-12-11T02:05:19.652Z,-0.10
2022-12-11T02:07:52.434Z,-0.10
2022-12-11T02:10:23.375Z,-0.10
2022-12-11T02:13:00.766Z,-0.10
2022-12-11T02:15:34.716Z,-0.10
2022-12-11T02:18:11.305Z,0.00
2022-12-11T02:20:42.832Z,-0.10
2022-12-11T02:23:34.274Z,-0.10
2022-12-11T02:26:17.165Z,-0.10
2022-12-11T02:28:49.836Z,-0.20
2022-12-11T02:31:23.357Z,-0.30
2022-12-11T02:33:55.896Z,-0.40
2022-12-11T02:36:27.264Z,-0.40
2022-12-11T02:38:57.764Z,-0.50
2022-12-11T02:41:27.880Z,-0.50
2022-12-11T02:43:58.682Z,-0.50
2022-12-11T02:46:27.428Z,-0.60
2022-12-11T02:48:56.642Z,-0.70
2022-12-11T02:51:29.071Z,-0.90
2022-12-11T02:54:00.027Z,-1.00
2022-12-11T02:56:31.772Z,-1.10
2022-12-11T02:59:07.130Z,-1.10
2022-12-11T03:01:35.023Z,-1.10
2022-12-11T03:04:03.058Z,-1.10
2022-12-11T03:06:42.618Z,-0.10
2022-12-11T03:09:10.420Z,-1.10
2022-12-11T03:11:38.196Z,-1.10
2022-12-11T03:14:08.851Z,-1.20
2022-12-11T03:16:39.466Z,-1.20
2022-12-11T03:19:21.036Z,-1.20
2022-12-11T03:21:55.165Z,-1.20
2022-12-11T03:24:31.092Z,-1.20
2022-12-11T03:27:05.668Z,-1.20
2022-12-11T03:29:42.063Z,-1.30
2022-12-11T03:32:13.505Z,-1.30
2022-12-11T03:34:45.789Z,-1.30
2022-12-11T03:37:16.299Z,-1.30
2022-12-11T03:39:55.866Z,-1.20
2022-12-11T03:42:25.650Z,-1.00
2022-12-11T03:44:57.844Z,-1.00
2022-12-11T03:47:28.183Z,-0.90
2022-12-11T03:49:57.968Z,-0.90
2022-12-11T03:52:28.287Z,-0.90
2022-12-11T03:54:59.116Z,-1.00
2022-12-11T03:57:30.377Z,-0.90
2022-12-11T03:59:59.720Z,-0.90
2022-12-11T04:02:27.628Z,-0.90
2022-12-11T04:04:55.422Z,-1.00
2022-12-11T04:07:23.358Z,-1.20
2022-12-11T04:09:51.116Z,-1.30
2022-12-11T04:12:18.884Z,-1.40
2022-12-11T04:15:04.690Z,-1.40
2022-12-11T04:17:53.721Z,-1.30
2022-12-11T04:20:39.645Z,-1.10
2022-12-11T04:23:29.916Z,-1.00
2022-12-11T04:26:05.966Z,-0.90
2022-12-11T04:28:33.756Z,-0.80
2022-12-11T04:31:01.879Z,-0.80
2022-12-11T04:33:31.363Z,-0.80
2022-12-11T04:35:59.831Z,-0.80
2022-12-11T04:38:28.037Z,-0.80
2022-12-11T04:40:59.874Z,-0.70
2022-12-11T04:43:28.357Z,-0.70
2022-12-11T04:46:02.771Z,-0.60
2022-12-11T04:48:32.172Z,-0.50
2022-12-11T04:51:00.081Z,-0.50
2022-12-11T04:53:28.166Z,-0.50
2022-12-11T04:55:56.376Z,-0.50
2022-12-11T04:58:24.987Z,-0.50
2022-12-11T05:00:53.413Z,-0.50
2022-12-11T05:03:21.544Z,-0.50
2022-12-11T05:05:52.493Z,-0.50
2022-12-11T05:08:21.054Z,-0.50
2022-12-11T05:10:56.805Z,-0.50
2022-12-11T05:13:24.896Z,-0.40
2022-12-11T05:15:52.754Z,-0.30
2022-12-11T05:18:20.786Z,-0.30
2022-12-11T05:20:57.959Z,-0.30
2022-12-11T05:23:25.947Z,-0.40
2022-12-11T05:25:54.732Z,-0.40
2022-12-11T05:28:24.760Z,-0.40
2022-12-11T05:30:57.582Z,-0.40
2022-12-11T05:33:25.814Z,-0.30
2022-12-11T05:35:53.939Z,-0.30
2022-12-11T05:38:23.503Z,-0.20
2022-12-11T05:40:58.048Z,-0.20
2022-12-11T05:43:26.103Z,-0.20
2022-12-11T05:45:54.100Z,-0.30
2022-12-11T05:48:22.086Z,-0.30
2022-12-11T05:50:58.704Z,-0.30
2022-12-11T05:53:28.301Z,-0.30
2022-12-11T05:56:01.667Z,-0.10
2022-12-11T05:58:29.632Z,-0.10
2022-12-11T06:00:57.589Z,-0.10
2022-12-11T06:03:25.409Z,-0.10
2022-12-11T06:05:53.248Z,-0.10
2022-12-11T06:08:21.093Z,-0.20
2022-12-11T06:10:51.647Z,-0.20
2022-12-11T06:13:19.421Z,-0.20
2022-12-11T06:15:47.196Z,-0.20
2022-12-11T06:18:14.968Z,-0.30
2022-12-11T06:20:42.712Z,-0.40
2022-12-11T06:23:10.825Z,-0.50
2022-12-11T06:25:40.215Z,-0.50
2022-12-11T06:28:09.438Z,-0.40
2022-12-11T06:30:38.828Z,-0.40
2022-12-11T06:33:07.367Z,-0.50
2022-12-11T06:35:41.633Z,-0.50
2022-12-11T06:38:10.389Z,-0.50
2022-12-11T06:40:38.404Z,-0.70
2022-12-11T06:43:06.199Z,-0.70
2022-12-11T06:45:35.378Z,-0.70
2022-12-11T06:48:03.183Z,-0.70
2022-12-11T06:50:31.124Z,-0.70
2022-12-11T06:52:58.866Z,-0.70
2022-12-11T06:55:26.624Z,-0.70
2022-12-11T06:57:54.371Z,-0.70
2022-12-11T07:00:22.389Z,-0.70
2022-12-11T07:02:53.024Z,-0.70
2022-12-11T07:05:20.810Z,-0.70
2022-12-11T07:07:48.635Z,-0.70
2022-12-11T07:10:16.643Z,-0.70
2022-12-11T07:12:44.419Z,-0.60
2022-12-11T07:15:12.902Z,-0.50
2022-12-11T07:17:40.910Z,-0.40
2022-12-11T07:20:11.464Z,-0.40
2022-12-11T07:22:44.650Z,-0.40
2022-12-11T07:25:14.276Z,-0.40
2022-12-11T07:27:42.466Z,-0.30
2022-12-11T07:30:11.588Z,-0.40
2022-12-11T07:32:39.381Z,-0.30
2022-12-11T07:35:07.664Z,-0.30
2022-12-11T07:37:38.067Z,-0.30
2022-12-11T07:40:06.743Z,-0.30
2022-12-11T07:42:34.530Z,-0.30
2022-12-11T07:45:02.319Z,-0.30
2022-12-11T07:47:30.088Z,-0.30
2022-12-11T07:49:57.847Z,-0.30
2022-12-11T07:52:25.624Z,-0.20
2022-12-11T07:54:54.729Z,-0.20
2022-12-11T07:57:22.561Z,-0.20
2022-12-11T07:59:50.412Z,-0.20
2022-12-11T08:02:18.338Z,-0.20
2022-12-11T08:04:46.190Z,-0.20
2022-12-11T08:07:13.990Z,-0.20
2022-12-11T08:09:41.915Z,-0.20
2022-12-11T08:12:11.867Z,-0.20
2022-12-11T08:14:39.713Z,-0.20
2022-12-11T08:17:07.523Z,-0.10
2022-12-11T08:19:35.324Z,-0.20
2022-12-11T08:22:03.136Z,-0.20
2022-12-11T08:24:30.920Z,-0.10
2022-12-11T08:26:58.706Z,-0.10
2022-12-11T08:29:27.831Z,0.00
2022-12-11T08:31:55.575Z,0.00
2022-12-11T08:34:23.360Z,0.00
2022-12-11T08:36:51.112Z,0.00
2022-12-11T08:39:19.562Z,0.00
2022-12-11T08:41:47.329Z,0.10
2022-12-11T08:44:16.927Z,0.20
2022-12-11T08:46:46.524Z,0.20
2022-12-11T08:49:14.340Z,0.20
2022-12-11T08:51:42.089Z,0.30
2022-12-11T08:54:10.762Z,0.30
2022-12-11T08:56:38.568Z,0.40
2022-12-11T08:59:06.713Z,0.60
2022-12-11T09:01:34.657Z,0.80
2022-12-11T09:04:03.825Z,1.00
2022-12-11T09:06:33.720Z,1.00
2022-12-11T09:09:02.521Z,1.00
2022-12-11T09:11:32.492Z,1.00
2022-12-11T09:14:06.744Z,0.90
2022-12-11T09:16:39.551Z,0.90
2022-12-11T09:19:09.831Z,0.80
2022-12-11T09:21:37.604Z,0.70
2022-12-11T09:24:06.031Z,0.70
2022-12-11T09:26:33.933Z,0.60
2022-12-11T09:29:04.396Z,0.60
2022-12-11T09:31:34.925Z,0.50
2022-12-11T09:34:05.841Z,0.40
2022-12-11T09:36:35.811Z,0.40
2022-12-11T09:39:05.291Z,0.30
2022-12-11T09:41:38.607Z,0.30
2022-12-11T09:44:24.647Z,0.20
2022-12-11T09:46:53.216Z,0.20
2022-12-11T09:49:27.512Z,0.20
2022-12-11T09:52:11.456Z,0.20
2022-12-11T09:54:44.810Z,0.20
2022-12-11T09:57:36.783Z,0.20
2022-12-11T10:00:15.766Z,0.20
2022-12-11T10:03:01.057Z,0.30
2022-12-11T10:05:34.383Z,0.30
2022-12-11T10:08:11.804Z,0.40
2022-12-11T10:10:44.110Z,0.40
2022-12-11T10:13:21.868Z,0.40
2022-12-11T10:15:54.536Z,0.40
2022-12-11T10:18:25.589Z,0.40
2022-12-11T10:20:54.683Z,0.50
2022-12-11T10:23:29.761Z,0.50
2022-12-11T10:26:04.891Z,0.60
2022-12-11T10:28:32.714Z,0.60
2022-12-11T10:31:11.853Z,0.60
2022-12-11T10:33:47.411Z,0.60
2022-12-11T10:36:21.363Z,0.60
2022-12-11T10:38:50.659Z,0.60
2022-12-11T10:41:21.107Z,0.60
2022-12-11T10:43:50.990Z,0.60
2022-12-11T10:46:21.177Z,0.70
2022-12-11T10:48:50.340Z,0.80
2022-12-11T10:51:18.858Z,0.90
2022-12-11T10:53:53.684Z,1.00
2022-12-11T10:56:28.505Z,1.20
2022-12-11T10:58:58.347Z,1.20
2022-12-11T11:01:29.798Z,1.30
2022-12-11T11:04:00.959Z,1.30
2022-12-11T11:06:28.827Z,1.20
2022-12-11T11:08:59.868Z,1.30
2022-12-11T11:11:33.995Z,1.30
2022-12-11T11:14:14.348Z,1.20
2022-12-11T11:16:44.632Z,1.10
2022-12-11T11:19:21.734Z,1.10
2022-12-11T11:21:52.634Z,1.10
2022-12-11T11:24:30.748Z,1.10
2022-12-11T11:27:14.525Z,1.20
2022-12-11T11:29:43.107Z,1.20
2022-12-11T11:32:20.823Z,1.10
2022-12-11T11:34:48.651Z,1.00
2022-12-11T11:37:25.976Z,0.90
2022-12-11T11:40:00.084Z,0.70
2022-12-11T11:42:38.536Z,0.70
2022-12-11T11:45:13.930Z,0.70
2022-12-11T11:47:50.703Z,0.70
2022-12-11T11:50:23.111Z,0.70
2022-12-11T11:52:56.686Z,0.70
2022-12-11T11:55:35.909Z,0.70
2022-12-11T11:58:12.944Z,0.70
2022-12-11T12:00:40.823Z,0.60
2022-12-11T12:03:12.293Z,0.70
2022-12-11T12:05:46.587Z,0.70
2022-12-11T12:08:24.296Z,0.70
2022-12-11T12:10:59.852Z,0.50
2022-12-11T12:13:51.765Z,0.40
2022-12-11T12:16:52.099Z,0.50
2022-12-11T12:19:28.204Z,0.50
2022-12-11T12:21:56.148Z,0.50
2022-12-11T12:24:33.470Z,0.40
2022-12-11T12:27:43.615Z,0.40
2022-12-11T12:30:11.549Z,0.40
2022-12-11T12:32:55.187Z,0.40
2022-12-11T12:35:35.116Z,0.30
2022-12-11T12:38:11.444Z,0.40
2022-12-11T12:40:51.436Z,0.60
2022-12-11T12:43:40.332Z,0.60
2022-12-11T12:46:15.512Z,0.60
2022-12-11T12:48:43.557Z,0.70
2022-12-11T12:51:15.646Z,0.70
2022-12-11T12:53:48.404Z,0.70
2022-12-11T12:56:17.474Z,0.70
2022-12-11T12:58:47.059Z,0.60
2022-12-11T13:01:19.193Z,0.60
2022-12-11T13:03:54.856Z,0.60
2022-12-11T13:06:35.187Z,0.50
2022-12-11T13:09:16.856Z,0.60
2022-12-11T13:11:45.477Z,0.60
2022-12-11T13:14:29.535Z,0.60
2022-12-11T13:17:23.999Z,0.70
2022-12-11T13:20:04.063Z,0.70
2022-12-11T13:22:32.275Z,0.80
2022-12-11T13:25:04.812Z,1.00
2022-12-11T13:27:38.942Z,1.20
2022-12-11T13:30:23.884Z,1.30
2022-12-11T13:33:01.304Z,1.40
2022-12-11T13:35:30.130Z,1.40
2022-12-11T13:38:04.629Z,1.40
2022-12-11T13:40:39.916Z,1.40
2022-12-11T13:43:17.836Z,1.40
2022-12-11T13:45:50.371Z,1.40
2022-12-11T13:48:24.598Z,1.30
2022-12-11T13:50:54.156Z,1.10
2022-12-11T13:53:23.065Z,0.90
2022-12-11T13:55:59.134Z,0.80
2022-12-11T13:58:27.563Z,0.70
2022-12-11T14:01:05.581Z,0.70
2022-12-11T14:03:34.147Z,0.60
2022-12-11T14:06:03.503Z,0.60
2022-12-11T14:08:35.391Z,0.50
2022-12-11T14:11:03.611Z,0.50
2022-12-11T14:13:34.984Z,0.50
2022-12-11T14:16:04.928Z,0.50
2022-12-11T14:18:36.019Z,0.50
2022-12-11T14:21:05.968Z,0.40
2022-12-11T14:23:35.186Z,0.30
2022-12-11T14:26:05.474Z,0.20
2022-12-11T14:28:39.166Z,0.20
2022-12-11T14:31:08.708Z,0.20
2022-12-11T14:33:41.672Z,0.10
2022-12-11T14:36:10.636Z,0.10
2022-12-11T14:38:41.595Z,0.10
2022-12-11T14:41:14.619Z,0.10
2022-12-11T14:43:46.843Z,0.10
2022-12-11T14:46:20.395Z,0.00
2022-12-11T14:48:57.479Z,-0.10
2022-12-11T14:51:31.002Z,-0.10
2022-12-11T14:53:59.118Z,-0.10
2022-12-11T14:56:30.576Z,-0.10
2022-12-11T14:59:01.664Z,-0.20
2022-12-11T15:01:32.505Z,-0.20
2022-12-11T15:04:06.064Z,-0.10
2022-12-11T15:06:36.168Z,-0.10
2022-12-11T15:09:19.696Z,-0.10
2022-12-11T15:11:49.600Z,-0.10
2022-12-11T15:14:20.580Z,-0.10
2022-12-11T15:16:51.297Z,-0.10
2022-12-11T15:19:23.843Z,-0.10
2022-12-11T15:21:52.306Z,-0.20
2022-12-11T15:24:26.229Z,-0.20
2022-12-11T15:26:57.862Z,-0.20
2022-12-11T15:29:31.959Z,-0.30
2022-12-11T15:32:18.445Z,-0.20
2022-12-11T15:34:48.560Z,-0.20
2022-12-11T15:37:21.848Z,-0.10
2022-12-11T15:39:50.092Z,-0.10
2022-12-11T15:42:22.683Z,0.00
2022-12-11T15:44:50.573Z,0.00
2022-12-11T15:47:22.612Z,0.00
2022-12-11T15:49:50.750Z,0.10
2022-12-11T15:52:18.548Z,0.10
2022-12-11T15:54:46.315Z,0.20
2022-12-11T15:57:18.695Z,0.20
2022-12-11T15:59:48.716Z,0.20
2022-12-11T16:02:17.015Z,0.20
2022-12-11T16:04:46.167Z,0.30
2022-12-11T16:07:18.191Z,0.30
2022-12-11T16:09:46.303Z,0.30
2022-12-11T16:12:14.580Z,0.30
2022-12-11T16:14:42.372Z,0.30
2022-12-11T16:17:11.112Z,0.30
2022-12-11T16:19:38.965Z,0.30
2022-12-11T16:22:09.526Z,0.20
2022-12-11T16:24:37.976Z,0.20
2022-12-11T16:27:07.143Z,0.20
2022-12-11T16:29:35.970Z,0.10
2022-12-11T16:32:03.921Z,0.00
2022-12-11T16:34:31.685Z,0.00
2022-12-11T16:37:00.151Z,-0.10
2022-12-11T16:39:29.488Z,-0.10
2022-12-11T16:41:57.264Z,-0.10
2022-12-11T16:44:27.230Z,-0.10
2022-12-11T16:46:55.401Z,-0.10
2022-12-11T16:49:23.280Z,-0.10
2022-12-11T16:51:51.110Z,-0.10
2022-12-11T16:54:19.168Z,-0.10
2022-12-11T16:56:48.260Z,-0.10
2022-12-11T16:59:16.003Z,-0.20
2022-12-11T17:01:44.825Z,-0.10
2022-12-11T17:04:12.674Z,-0.10
2022-12-11T17:06:41.188Z,-0.10
2022-12-11T17:09:09.002Z,-0.10
2022-12-11T17:11:36.772Z,-0.10
2022-12-11T17:14:05.895Z,-0.10
2022-12-11T17:16:33.996Z,-0.20
2022-12-11T17:19:02.963Z,-0.20
2022-12-11T17:21:30.760Z,-0.20
2022-12-11T17:23:58.551Z,-0.20
2022-12-11T17:26:28.418Z,-0.20
2022-12-11T17:28:57.592Z,-0.20
2022-12-11T17:31:27.388Z,-0.20
2022-12-11T17:33:57.212Z,-0.20
2022-12-11T17:36:25.048Z,-0.20
2022-12-11T17:38:52.889Z,-0.20
2022-12-11T17:41:21.790Z,-0.20
2022-12-11T17:43:49.658Z,-0.20
2022-12-11T17:46:17.978Z,-0.20
2022-12-11T17:48:47.162Z,-0.20
2022-12-11T17:51:21.766Z,-0.20
2022-12-11T17:53:49.592Z,-0.10
2022-12-11T17:56:17.577Z,0.00
2022-12-11T17:58:45.530Z,-0.10
2022-12-11T18:01:13.893Z,-0.10
2022-12-11T18:03:42.422Z,-0.10
2022-12-11T18:06:13.530Z,-0.20
2022-12-11T18:08:42.558Z,-0.30
2022-12-11T18:11:12.187Z,-0.20
2022-12-11T18:13:40.115Z,-0.20
2022-12-11T18:16:11.243Z,-0.20
2022-12-11T18:18:40.784Z,-0.10
2022-12-11T18:21:08.856Z,-0.10
2022-12-11T18:23:37.954Z,-0.10
2022-12-11T18:26:05.985Z,-0.10
2022-12-11T18:28:33.727Z,0.00
2022-12-11T18:31:01.811Z,0.00
2022-12-11T18:33:30.620Z,0.00
2022-12-11T18:35:58.428Z,0.00
2022-12-11T18:38:26.387Z,0.10
2022-12-11T18:40:55.567Z,0.10
2022-12-11T18:43:23.336Z,0.20
2022-12-11T18:45:51.708Z,0.10
2022-12-11T18:48:19.523Z,0.10
2022-12-11T18:50:48.163Z,0.00
2022-12-11T18:53:16.425Z,0.00
2022-12-11T18:55:45.052Z,0.00
2022-12-11T18:58:15.767Z,0.00
2022-12-11T19:00:44.772Z,0.00
2022-12-11T19:03:13.591Z,0.00
2022-12-11T19:05:43.784Z,0.10
2022-12-11T19:08:13.681Z,0.20
2022-12-11T19:10:42.862Z,0.30
2022-12-11T19:13:10.792Z,0.20
2022-12-11T19:15:41.648Z,0.20
2022-12-11T19:18:10.087Z,0.20
2022-12-11T19:20:49.150Z,0.20
2022-12-11T19:23:19.243Z,0.20
2022-12-11T19:25:48.685Z,0.20
2022-12-11T19:28:17.281Z,0.20
2022-12-11T19:30:47.351Z,0.20
2022-12-11T19:33:15.952Z,0.20
2022-12-11T19:35:44.637Z,0.10
2022-12-11T19:38:13.620Z,0.00
2022-12-11T19:40:42.605Z,0.00
2022-12-11T19:43:10.852Z,-0.10
2022-12-11T19:45:38.870Z,-0.10
2022-12-11T19:48:08.163Z,-0.10
2022-12-11T19:50:36.694Z,-0.10
2022-12-11T19:53:05.009Z,-0.10
2022-12-11T19:55:33.456Z,0.00
2022-12-11T19:58:01.226Z,-0.10
2022-12-11T20:00:29.040Z,0.00
2022-12-11T20:02:56.859Z,0.00
2022-12-11T20:05:25.975Z,0.00
2022-12-11T20:07:53.771Z,0.00
2022-12-11T20:10:21.588Z,0.10
2022-12-11T20:12:49.343Z,0.00
2022-12-11T20:15:19.441Z,0.00
2022-12-11T20:17:47.422Z,0.10
2022-12-11T20:20:15.174Z,0.10
2022-12-11T20:22:44.276Z,0.10
2022-12-11T20:25:12.392Z,0.10
2022-12-11T20:27:40.672Z,0.10
2022-12-11T20:30:09.422Z,0.10
2022-12-11T20:32:37.321Z,0.20
2022-12-11T20:35:06.258Z,0.20
2022-12-11T20:37:35.089Z,0.30
2022-12-11T20:40:05.868Z,0.20
2022-12-11T20:42:33.703Z,0.30
2022-12-11T20:45:01.467Z,0.20
2022-12-11T20:47:29.264Z,0.20
2022-12-11T20:49:57.035Z,0.20
2022-12-11T20:52:24.865Z,0.20
2022-12-11T20:54:52.620Z,0.30
2022-12-11T20:57:21.842Z,0.20
2022-12-11T20:59:49.676Z,0.20
2022-12-11T21:02:17.480Z,0.10
2022-12-11T21:04:45.439Z,0.10
2022-12-11T21:07:13.527Z,0.10
2022-12-11T21:09:41.325Z,0.00
2022-12-11T21:12:09.502Z,0.00
2022-12-11T21:14:38.766Z,-0.10
2022-12-11T21:17:06.742Z,0.00
2022-12-11T21:19:34.532Z,0.00
2022-12-11T21:22:03.376Z,0.10
2022-12-11T21:24:31.391Z,0.10
2022-12-11T21:26:59.812Z,0.10
2022-12-11T21:29:29.840Z,0.10
2022-12-11T21:31:59.390Z,0.10
2022-12-11T21:34:28.208Z,-0.10
2022-12-11T21:36:56.908Z,0.10
2022-12-11T21:39:25.672Z,0.10
2022-12-11T21:41:53.739Z,0.10
2022-12-11T21:47:10.908Z,0.10
2022-12-11T21:49:38.707Z,0.00
2022-12-11T21:52:08.238Z,0.10
2022-12-11T21:54:36.410Z,0.10
2022-12-11T21:57:04.671Z,0.10
2022-12-11T21:59:32.762Z,0.00
2022-12-11T22:02:00.853Z,0.00
2022-12-11T22:04:30.051Z,-0.10
2022-12-11T22:06:57.847Z,-0.10
2022-12-11T22:09:25.915Z,-0.10
2022-12-11T22:11:58.130Z,-0.10
2022-12-11T22:14:26.432Z,0.00
2022-12-11T22:16:54.280Z,0.10
2022-12-11T22:19:22.072Z,0.10
2022-12-11T22:21:51.329Z,0.10
2022-12-11T22:24:19.115Z,0.10
2022-12-11T22:26:46.868Z,0.10
2022-12-11T22:29:14.757Z,0.10
2022-12-11T22:31:42.535Z,0.10
2022-12-11T22:34:10.310Z,0.20
2022-12-11T22:36:38.306Z,0.20
2022-12-11T22:39:07.445Z,0.10
2022-12-11T22:41:38.202Z,0.10
2022-12-11T22:44:06.107Z,0.10
2022-12-11T22:46:33.852Z,0.10
2022-12-11T22:49:01.599Z,0.20
2022-12-11T22:51:29.325Z,0.20
2022-12-11T22:53:57.157Z,0.20
2022-12-11T22:56:26.328Z,0.20
2022-12-11T22:58:54.155Z,0.20
2022-12-11T23:01:25.101Z,0.10
2022-12-11T23:03:53.659Z,0.20
2022-12-11T23:06:23.164Z,0.10
2022-12-11T23:08:51.944Z,0.10
2022-12-11T23:11:22.532Z,0.10
2022-12-11T23:13:51.800Z,0.20
2022-12-11T23:16:19.654Z,0.20
2022-12-11T23:18:47.473Z,0.20
2022-12-11T23:21:15.524Z,0.20
2022-12-11T23:23:43.524Z,0.20
2022-12-11T23:26:14.492Z,0.30
2022-12-11T23:28:42.758Z,0.30
2022-12-11T23:31:12.523Z,0.40
2022-12-11T23:33:40.615Z,0.30
2022-12-11T23:36:09.598Z,0.20
2022-12-11T23:38:37.420Z,0.20
2022-12-11T23:41:06.497Z,0.10
2022-12-11T23:43:35.580Z,0.10
2022-12-11T23:46:03.731Z,0.00
2022-12-11T23:48:32.866Z,0.00
2022-12-11T23:51:01.099Z,0.10
2022-12-11T23:53:28.969Z,0.10
2022-12-11T23:55:56.842Z,0.00
2022-12-11T23:58:24.623Z,0.00
